createdAt,value
2022-12-19T00:00:33.672Z,1023.41
2022-12-19T00:01:33.735Z,1023.41
2022-12-19T00:02:33.812Z,1023.40
2022-12-19T00:03:33.768Z,1023.23
2022-12-19T00:04:33.628Z,1023.24
2022-12-19T00:05:33.633Z,1023.18
2022-12-19T00:06:33.717Z,1023.19
2022-12-19T00:07:33.659Z,1023.16
2022-12-19T00:08:33.595Z,1023.12
2022-12-19T00:09:33.571Z,1023.17
2022-12-19T00:10:33.572Z,1023.15
2022-12-19T00:11:33.567Z,1023.10
2022-12-19T00:12:33.544Z,1023.02
2022-12-19T00:13:40.786Z,1022.99
2022-12-19T00:14:34.521Z,1023.01
2022-12-19T00:15:33.548Z,1023.00
2022-12-19T00:16:33.590Z,1022.95
2022-12-19T00:17:33.494Z,1022.92
2022-12-19T00:18:33.485Z,1022.97
2022-12-19T00:19:33.469Z,1022.89
2022-12-19T00:20:33.458Z,1022.96
2022-12-19T00:21:34.890Z,1022.97
2022-12-19T00:22:33.554Z,1022.99
2022-12-19T00:23:33.426Z,1022.97
2022-12-19T00:24:33.422Z,1023.00
2022-12-19T00:25:33.411Z,1023.03
2022-12-19T00:26:33.403Z,1023.10
2022-12-19T00:27:33.388Z,1023.12
2022-12-19T00:28:33.376Z,1023.10
2022-12-19T00:29:33.361Z,1023.11
2022-12-19T00:30:33.365Z,1023.02
2022-12-19T00:31:33.542Z,1023.04
2022-12-19T00:32:33.358Z,1023.03
2022-12-19T00:33:33.326Z,1022.99
2022-12-19T00:34:33.314Z,1022.96
2022-12-19T00:35:33.300Z,1022.99
2022-12-19T00:36:33.299Z,1023.03
2022-12-19T00:37:33.289Z,1022.95
2022-12-19T00:38:33.411Z,1022.95
2022-12-19T00:39:33.258Z,1022.93
2022-12-19T00:40:33.247Z,1022.99
2022-12-19T00:41:33.236Z,1023.06
2022-12-19T00:42:33.999Z,1023.06
2022-12-19T00:43:33.215Z,1022.99
2022-12-19T00:44:33.239Z,1023.00
2022-12-19T00:45:33.290Z,1022.99
2022-12-19T00:46:33.182Z,1022.96
2022-12-19T00:47:33.173Z,1022.92
2022-12-19T00:48:33.177Z,1022.90
2022-12-19T00:49:33.187Z,1022.86
2022-12-19T00:50:33.151Z,1022.89
2022-12-19T00:51:33.173Z,1022.83
2022-12-19T00:52:33.142Z,1022.90
2022-12-19T00:53:33.154Z,1022.84
2022-12-19T00:54:33.294Z,1022.86
2022-12-19T00:55:33.098Z,1022.81
2022-12-19T00:56:33.511Z,1022.80
2022-12-19T00:57:33.115Z,1022.78
2022-12-19T00:58:35.507Z,1022.85
2022-12-19T00:59:33.060Z,1022.71
2022-12-19T01:00:33.103Z,1022.71
2022-12-19T01:01:33.252Z,1022.69
2022-12-19T01:02:33.230Z,1022.73
2022-12-19T01:03:33.016Z,1022.67
2022-12-19T01:04:36.844Z,1022.71
2022-12-19T01:05:33.984Z,1022.62
2022-12-19T01:06:32.997Z,1022.62
2022-12-19T01:07:32.973Z,1022.63
2022-12-19T01:08:32.977Z,1022.53
2022-12-19T01:09:32.966Z,1022.51
2022-12-19T01:10:33.052Z,1022.52
2022-12-19T01:11:32.924Z,1022.49
2022-12-19T01:12:32.914Z,1022.48
2022-12-19T01:13:32.917Z,1022.45
2022-12-19T01:14:32.915Z,1022.38
2022-12-19T01:15:32.918Z,1022.37
2022-12-19T01:16:32.964Z,1022.25
2022-12-19T01:17:32.870Z,1022.29
2022-12-19T01:18:32.852Z,1022.27
2022-12-19T01:19:32.853Z,1022.22
2022-12-19T01:20:33.495Z,1022.30
2022-12-19T01:21:32.828Z,1022.26
2022-12-19T01:22:32.819Z,1022.22
2022-12-19T01:23:32.804Z,1022.21
2022-12-19T01:24:32.810Z,1022.21
2022-12-19T01:25:32.806Z,1022.17
2022-12-19T01:26:32.886Z,1022.05
2022-12-19T01:27:32.760Z,1022.14
2022-12-19T01:28:32.754Z,1022.08
2022-12-19T01:29:32.738Z,1022.10
2022-12-19T01:30:32.728Z,1022.12
2022-12-19T01:31:32.798Z,1022.07
2022-12-19T01:32:32.719Z,1022.06
2022-12-19T01:33:32.705Z,1022.03
2022-12-19T01:34:32.745Z,1022.00
2022-12-19T01:35:32.684Z,1021.93
2022-12-19T01:36:32.663Z,1021.92
2022-12-19T01:37:32.658Z,1021.91
2022-12-19T01:38:32.657Z,1021.80
2022-12-19T01:39:33.514Z,1021.82
2022-12-19T01:40:32.628Z,1021.70
2022-12-19T01:41:32.623Z,1021.65
2022-12-19T01:42:32.720Z,1021.64
2022-12-19T01:43:32.603Z,1021.60
2022-12-19T01:44:32.590Z,1021.65
2022-12-19T01:45:34.695Z,1021.64
2022-12-19T01:46:32.620Z,1021.68
2022-12-19T01:47:32.564Z,1021.64
2022-12-19T01:48:32.585Z,1021.69
2022-12-19T01:49:32.526Z,1021.71
2022-12-19T01:50:32.530Z,1021.66
2022-12-19T01:51:32.519Z,1021.63
2022-12-19T01:52:32.509Z,1021.62
2022-12-19T01:53:32.503Z,1021.54
2022-12-19T01:54:32.477Z,1021.56
2022-12-19T01:55:32.478Z,1021.57
2022-12-19T01:56:32.419Z,1021.51
2022-12-19T01:57:32.443Z,1021.51
2022-12-19T01:58:32.531Z,1021.50
2022-12-19T01:59:32.402Z,1021.55
2022-12-19T02:00:32.390Z,1021.53
2022-12-19T02:01:32.421Z,1021.45
2022-12-19T02:02:32.516Z,1021.42
2022-12-19T02:03:32.400Z,1021.42
2022-12-19T02:04:32.807Z,1021.39
2022-12-19T02:05:32.340Z,1021.38
2022-12-19T02:06:32.328Z,1021.38
2022-12-19T02:07:32.313Z,1021.38
2022-12-19T02:08:32.307Z,1021.34
2022-12-19T02:09:32.319Z,1021.30
2022-12-19T02:10:32.289Z,1021.38
2022-12-19T02:11:32.282Z,1021.29
2022-12-19T02:12:32.281Z,1021.37
2022-12-19T02:13:32.252Z,1021.29
2022-12-19T02:14:32.599Z,1021.37
2022-12-19T02:15:32.263Z,1021.31
2022-12-19T02:16:32.259Z,1021.30
2022-12-19T02:17:32.247Z,1021.26
2022-12-19T02:18:32.205Z,1021.33
2022-12-19T02:19:32.204Z,1021.29
2022-12-19T02:20:32.177Z,1021.36
2022-12-19T02:21:32.169Z,1021.33
2022-12-19T02:22:32.174Z,1021.27
2022-12-19T02:23:32.162Z,1021.23
2022-12-19T02:24:32.387Z,1021.25
2022-12-19T02:25:32.140Z,1021.19
2022-12-19T02:26:32.125Z,1021.18
2022-12-19T02:27:35.911Z,1021.07
2022-12-19T02:28:32.103Z,1021.11
2022-12-19T02:29:32.114Z,1021.14
2022-12-19T02:30:32.201Z,1021.04
2022-12-19T02:31:32.115Z,1021.02
2022-12-19T02:32:32.075Z,1021.05
2022-12-19T02:33:32.062Z,1021.07
2022-12-19T02:34:32.047Z,1021.04
2022-12-19T02:35:32.051Z,1021.07
2022-12-19T02:36:33.924Z,1021.10
2022-12-19T02:37:33.013Z,1021.07
2022-12-19T02:38:32.009Z,1021.05
2022-12-19T02:39:32.794Z,1021.04
2022-12-19T02:40:31.992Z,1021.05
2022-12-19T02:41:31.985Z,1020.97
2022-12-19T02:42:32.220Z,1020.92
2022-12-19T02:43:31.957Z,1020.96
2022-12-19T02:44:31.943Z,1020.98
2022-12-19T02:45:31.967Z,1021.07
2022-12-19T02:46:32.040Z,1021.11
2022-12-19T02:47:31.910Z,1021.11
2022-12-19T02:48:31.916Z,1021.05
2022-12-19T02:49:31.893Z,1021.04
2022-12-19T02:50:31.889Z,1021.03
2022-12-19T02:51:31.883Z,1021.08
2022-12-19T02:52:31.870Z,1021.02
2022-12-19T02:53:31.854Z,1021.03
2022-12-19T02:54:31.843Z,1021.01
2022-12-19T02:55:31.842Z,1020.91
2022-12-19T02:56:31.835Z,1020.96
2022-12-19T02:57:31.816Z,1021.04
2022-12-19T02:58:31.827Z,1021.00
2022-12-19T02:59:31.791Z,1021.04
2022-12-19T03:00:31.790Z,1020.99
2022-12-19T03:01:31.933Z,1021.03
2022-12-19T03:02:31.988Z,1021.05
2022-12-19T03:03:31.880Z,1021.06
2022-12-19T03:04:31.747Z,1020.95
2022-12-19T03:05:31.758Z,1020.92
2022-12-19T03:06:31.742Z,1020.89
2022-12-19T03:07:31.722Z,1020.86
2022-12-19T03:08:31.708Z,1020.91
2022-12-19T03:09:31.703Z,1020.85
2022-12-19T03:10:31.696Z,1020.86
2022-12-19T03:11:31.699Z,1020.90
2022-12-19T03:12:31.675Z,1020.86
2022-12-19T03:13:31.666Z,1020.87
2022-12-19T03:14:31.718Z,1020.84
2022-12-19T03:15:31.632Z,1020.90
2022-12-19T03:16:31.648Z,1020.90
2022-12-19T03:17:31.616Z,1020.92
2022-12-19T03:18:31.741Z,1020.83
2022-12-19T03:19:31.602Z,1020.84
2022-12-19T03:20:31.604Z,1020.83
2022-12-19T03:21:31.666Z,1020.87
2022-12-19T03:22:31.570Z,1020.91
2022-12-19T03:23:31.575Z,1020.88
2022-12-19T03:24:31.560Z,1020.89
2022-12-19T03:25:31.551Z,1020.82
2022-12-19T03:26:31.605Z,1020.79
2022-12-19T03:27:31.516Z,1020.80
2022-12-19T03:28:31.517Z,1020.83
2022-12-19T03:29:31.512Z,1020.86
2022-12-19T03:30:31.535Z,1020.86
2022-12-19T03:31:31.486Z,1020.84
2022-12-19T03:32:31.469Z,1020.85
2022-12-19T03:33:31.459Z,1020.86
2022-12-19T03:34:31.599Z,1020.75
2022-12-19T03:35:31.445Z,1020.73
2022-12-19T03:36:31.431Z,1020.76
2022-12-19T03:37:31.419Z,1020.71
2022-12-19T03:38:31.409Z,1020.74
2022-12-19T03:39:31.393Z,1020.68
2022-12-19T03:40:31.394Z,1020.62
2022-12-19T03:41:31.389Z,1020.65
2022-12-19T03:42:31.385Z,1020.71
2022-12-19T03:43:31.371Z,1020.72
2022-12-19T03:44:31.355Z,1020.76
2022-12-19T03:45:31.340Z,1020.72
2022-12-19T03:46:31.352Z,1020.80
2022-12-19T03:47:31.340Z,1020.79
2022-12-19T03:48:31.301Z,1020.78
2022-12-19T03:49:31.290Z,1020.73
2022-12-19T03:50:31.416Z,1020.77
2022-12-19T03:51:31.301Z,1020.78
2022-12-19T03:52:31.263Z,1020.75
2022-12-19T03:53:31.262Z,1020.73
2022-12-19T03:54:31.286Z,1020.79
2022-12-19T03:55:31.228Z,1020.72
2022-12-19T03:56:31.229Z,1020.75
2022-12-19T03:57:31.224Z,1020.81
2022-12-19T03:58:31.198Z,1020.77
2022-12-19T03:59:31.196Z,1020.72
2022-12-19T04:00:31.203Z,1020.76
2022-12-19T04:01:31.232Z,1020.77
2022-12-19T04:02:31.225Z,1020.68
2022-12-19T04:03:31.193Z,1020.68
2022-12-19T04:04:31.138Z,1020.69
2022-12-19T04:05:31.135Z,1020.65
2022-12-19T04:06:31.251Z,1020.68
2022-12-19T04:07:31.116Z,1020.66
2022-12-19T04:08:31.121Z,1020.70
2022-12-19T04:09:31.094Z,1020.64
2022-12-19T04:10:31.098Z,1020.68
2022-12-19T04:11:31.070Z,1020.65
2022-12-19T04:12:31.078Z,1020.61
2022-12-19T04:13:31.053Z,1020.60
2022-12-19T04:14:31.056Z,1020.54
2022-12-19T04:15:31.080Z,1020.58
2022-12-19T04:16:31.037Z,1020.50
2022-12-19T04:17:31.022Z,1020.54
2022-12-19T04:18:31.023Z,1020.60
2022-12-19T04:19:30.990Z,1020.50
2022-12-19T04:20:30.984Z,1020.55
2022-12-19T04:21:30.995Z,1020.57
2022-12-19T04:22:31.077Z,1020.55
2022-12-19T04:23:30.946Z,1020.54
2022-12-19T04:24:30.944Z,1020.61
2022-12-19T04:25:30.940Z,1020.59
2022-12-19T04:26:30.921Z,1020.62
2022-12-19T04:27:30.909Z,1020.63
2022-12-19T04:28:30.886Z,1020.63
2022-12-19T04:29:30.882Z,1020.59
2022-12-19T04:30:30.898Z,1020.69
2022-12-19T04:31:31.910Z,1020.62
2022-12-19T04:32:30.859Z,1020.67
2022-12-19T04:33:30.848Z,1020.66
2022-12-19T04:34:30.838Z,1020.67
2022-12-19T04:35:30.844Z,1020.68
2022-12-19T04:36:30.814Z,1020.67
2022-12-19T04:37:30.807Z,1020.65
2022-12-19T04:38:30.894Z,1020.70
2022-12-19T04:39:30.783Z,1020.69
2022-12-19T04:40:30.776Z,1020.66
2022-12-19T04:41:30.765Z,1020.65
2022-12-19T04:42:30.751Z,1020.62
2022-12-19T04:43:30.755Z,1020.61
2022-12-19T04:44:30.729Z,1020.60
2022-12-19T04:45:30.721Z,1020.62
2022-12-19T04:46:30.747Z,1020.65
2022-12-19T04:47:38.548Z,1020.60
2022-12-19T04:48:30.683Z,1020.60
2022-12-19T04:49:30.700Z,1020.57
2022-12-19T04:50:30.663Z,1020.54
2022-12-19T04:51:30.651Z,1020.50
2022-12-19T04:52:30.640Z,1020.56
2022-12-19T04:53:30.657Z,1020.51
2022-12-19T04:54:30.758Z,1020.55
2022-12-19T04:55:30.609Z,1020.47
2022-12-19T04:56:30.608Z,1020.45
2022-12-19T04:57:30.594Z,1020.37
2022-12-19T04:58:30.586Z,1020.33
2022-12-19T04:59:30.584Z,1020.35
2022-12-19T05:00:30.563Z,1020.37
2022-12-19T05:01:30.691Z,1020.31
2022-12-19T05:02:30.683Z,1020.37
2022-12-19T05:03:30.578Z,1020.20
2022-12-19T05:04:30.526Z,1020.33
2022-12-19T05:05:30.520Z,1020.33
2022-12-19T05:06:30.523Z,1020.35
2022-12-19T05:07:30.504Z,1020.29
2022-12-19T05:08:30.477Z,1020.30
2022-12-19T05:09:30.468Z,1020.34
2022-12-19T05:10:30.590Z,1020.36
2022-12-19T05:11:30.477Z,1020.38
2022-12-19T05:12:30.430Z,1020.35
2022-12-19T05:13:30.427Z,1020.28
2022-12-19T05:14:30.406Z,1020.22
2022-12-19T05:15:30.407Z,1020.16
2022-12-19T05:16:30.418Z,1020.27
2022-12-19T05:17:30.381Z,1020.24
2022-12-19T05:18:30.374Z,1020.25
2022-12-19T05:19:30.356Z,1020.24
2022-12-19T05:20:30.356Z,1020.22
2022-12-19T05:21:30.350Z,1020.28
2022-12-19T05:22:30.328Z,1020.27
2022-12-19T05:23:30.322Z,1020.18
2022-12-19T05:24:30.306Z,1020.28
2022-12-19T05:25:30.302Z,1020.12
2022-12-19T05:26:30.409Z,1020.20
2022-12-19T05:27:30.300Z,1020.21
2022-12-19T05:28:30.263Z,1020.22
2022-12-19T05:29:30.252Z,1020.21
2022-12-19T05:30:30.249Z,1020.17
2022-12-19T05:31:30.360Z,1020.15
2022-12-19T05:32:30.222Z,1020.17
2022-12-19T05:33:30.214Z,1020.21
2022-12-19T05:34:30.211Z,1020.10
2022-12-19T05:35:30.203Z,1020.14
2022-12-19T05:36:32.567Z,1020.06
2022-12-19T05:37:30.180Z,1020.00
2022-12-19T05:38:30.179Z,1020.05
2022-12-19T05:39:30.150Z,1020.07
2022-12-19T05:40:30.135Z,1020.02
2022-12-19T05:41:30.142Z,1020.04
2022-12-19T05:42:30.233Z,1020.12
2022-12-19T05:43:30.139Z,1020.09
2022-12-19T05:44:30.097Z,1020.32
2022-12-19T05:45:30.080Z,1020.08
2022-12-19T05:46:30.195Z,1020.04
2022-12-19T05:47:30.064Z,1020.01
2022-12-19T05:48:30.052Z,1020.03
2022-12-19T05:49:30.062Z,1020.00
2022-12-19T05:50:30.031Z,1020.02
2022-12-19T05:51:30.031Z,1019.99
2022-12-19T05:52:30.018Z,1019.92
2022-12-19T05:53:29.996Z,1019.98
2022-12-19T05:54:30.026Z,1019.92
2022-12-19T05:55:29.980Z,1019.88
2022-12-19T05:56:30.008Z,1019.87
2022-12-19T05:57:29.956Z,1019.86
2022-12-19T05:58:30.068Z,1019.86
2022-12-19T05:59:29.944Z,1019.84
2022-12-19T06:00:29.960Z,1019.82
2022-12-19T06:01:29.942Z,1019.88
2022-12-19T06:02:30.066Z,1019.78
2022-12-19T06:03:29.953Z,1019.76
2022-12-19T06:04:29.884Z,1019.75
2022-12-19T06:05:29.947Z,1019.79
2022-12-19T06:06:29.873Z,1019.80
2022-12-19T06:07:29.869Z,1019.88
2022-12-19T06:08:29.860Z,1019.78
2022-12-19T06:09:29.836Z,1019.78
2022-12-19T06:10:29.833Z,1019.83
2022-12-19T06:11:29.821Z,1019.82
2022-12-19T06:12:29.809Z,1019.85
2022-12-19T06:13:29.804Z,1019.77
2022-12-19T06:14:29.887Z,1019.77
2022-12-19T06:15:29.791Z,1019.75
2022-12-19T06:16:29.797Z,1019.64
2022-12-19T06:17:29.768Z,1019.56
2022-12-19T06:18:29.791Z,1019.60
2022-12-19T06:19:29.747Z,1019.62
2022-12-19T06:20:29.736Z,1019.58
2022-12-19T06:21:29.748Z,1019.59
2022-12-19T06:22:29.756Z,1019.45
2022-12-19T06:23:29.700Z,1019.42
2022-12-19T06:24:29.676Z,1019.46
2022-12-19T06:25:29.670Z,1019.41
2022-12-19T06:26:29.688Z,1019.39
2022-12-19T06:27:29.652Z,1019.39
2022-12-19T06:28:29.658Z,1019.42
2022-12-19T06:29:29.654Z,1019.48
2022-12-19T06:30:29.660Z,1019.42
2022-12-19T06:31:29.724Z,1019.41
2022-12-19T06:32:32.396Z,1019.40
2022-12-19T06:33:29.605Z,1019.39
2022-12-19T06:35:02.221Z,1019.42
2022-12-19T06:35:30.564Z,1019.41
2022-12-19T06:36:29.556Z,1019.41
2022-12-19T06:37:29.558Z,1019.37
2022-12-19T06:38:29.545Z,1019.33
2022-12-19T06:39:29.538Z,1019.35
2022-12-19T06:40:29.512Z,1019.34
2022-12-19T06:41:29.522Z,1019.29
2022-12-19T06:42:29.486Z,1019.40
2022-12-19T06:43:29.488Z,1019.31
2022-12-19T06:44:29.474Z,1019.41
2022-12-19T06:45:29.540Z,1019.39
2022-12-19T06:46:29.705Z,1019.40
2022-12-19T06:47:29.465Z,1019.38
2022-12-19T06:48:29.432Z,1019.36
2022-12-19T06:49:29.414Z,1019.44
2022-12-19T06:50:29.407Z,1019.33
2022-12-19T06:51:29.403Z,1019.44
2022-12-19T06:52:29.401Z,1019.36
2022-12-19T06:53:29.402Z,1019.35
2022-12-19T06:54:29.384Z,1019.41
2022-12-19T06:55:29.360Z,1019.34
2022-12-19T06:56:29.351Z,1019.42
2022-12-19T06:57:29.340Z,1019.40
2022-12-19T06:58:29.337Z,1019.45
2022-12-19T06:59:29.319Z,1019.46
2022-12-19T07:00:29.320Z,1019.51
2022-12-19T07:01:29.444Z,1019.53
2022-12-19T07:02:29.665Z,1019.54
2022-12-19T07:03:29.286Z,1019.58
2022-12-19T07:04:29.266Z,1019.62
2022-12-19T07:05:29.251Z,1019.66
2022-12-19T07:06:29.257Z,1019.64
2022-12-19T07:07:29.229Z,1019.62
2022-12-19T07:08:29.238Z,1019.61
2022-12-19T07:09:29.233Z,1019.62
2022-12-19T07:10:29.236Z,1019.65
2022-12-19T07:11:29.189Z,1019.46
2022-12-19T07:12:29.202Z,1019.50
2022-12-19T07:13:29.170Z,1019.45
2022-12-19T07:14:29.153Z,1019.44
2022-12-19T07:15:29.143Z,1019.44
2022-12-19T07:16:29.262Z,1019.45
2022-12-19T07:17:29.147Z,1019.40
2022-12-19T07:18:29.231Z,1019.36
2022-12-19T07:19:29.107Z,1019.38
2022-12-19T07:20:29.126Z,1019.39
2022-12-19T07:21:29.093Z,1019.35
2022-12-19T07:22:29.085Z,1019.38
2022-12-19T07:23:29.079Z,1019.39
2022-12-19T07:24:29.089Z,1019.38
2022-12-19T07:25:29.043Z,1019.45
2022-12-19T07:26:29.061Z,1019.44
2022-12-19T07:27:35.486Z,1019.46
2022-12-19T07:28:30.017Z,1019.38
2022-12-19T07:29:29.005Z,1019.34
2022-12-19T07:30:28.994Z,1019.37
2022-12-19T07:31:29.027Z,1019.40
2022-12-19T07:32:28.968Z,1019.44
2022-12-19T07:33:28.963Z,1019.43
2022-12-19T07:34:29.066Z,1019.42
2022-12-19T07:35:28.943Z,1019.42
2022-12-19T07:36:28.941Z,1019.38
2022-12-19T07:37:28.937Z,1019.37
2022-12-19T07:38:28.912Z,1019.37
2022-12-19T07:39:28.904Z,1019.40
2022-12-19T07:40:29.027Z,1019.45
2022-12-19T07:41:28.871Z,1019.37
2022-12-19T07:42:32.447Z,1019.36
2022-12-19T07:43:28.958Z,1019.40
2022-12-19T07:44:28.939Z,1019.31
2022-12-19T07:45:28.865Z,1019.34
2022-12-19T07:46:28.819Z,1019.41
2022-12-19T07:47:28.823Z,1019.45
2022-12-19T07:48:28.845Z,1019.42
2022-12-19T07:49:28.953Z,1019.46
2022-12-19T07:50:28.961Z,1019.46
2022-12-19T07:51:28.773Z,1019.43
2022-12-19T07:52:28.767Z,1019.42
2022-12-19T07:53:28.781Z,1019.38
2022-12-19T07:54:28.737Z,1019.29
2022-12-19T07:55:28.739Z,1019.39
2022-12-19T07:56:28.737Z,1019.22
2022-12-19T07:57:28.726Z,1019.25
2022-12-19T07:58:28.720Z,1019.25
2022-12-19T07:59:32.297Z,1019.27
2022-12-19T08:00:29.675Z,1019.27
2022-12-19T08:01:29.252Z,1019.27
2022-12-19T08:02:28.856Z,1019.26
2022-12-19T08:03:28.691Z,1019.29
2022-12-19T08:04:28.638Z,1019.23
2022-12-19T08:05:28.631Z,1019.29
2022-12-19T08:06:28.730Z,1019.26
2022-12-19T08:07:28.642Z,1019.28
2022-12-19T08:08:28.647Z,1019.25
2022-12-19T08:09:28.580Z,1019.22
2022-12-19T08:10:28.633Z,1019.23
2022-12-19T08:11:28.572Z,1019.19
2022-12-19T08:12:28.569Z,1019.17
2022-12-19T08:13:32.407Z,1019.18
2022-12-19T08:14:29.580Z,1019.21
2022-12-19T08:15:28.528Z,1019.19
2022-12-19T08:16:28.542Z,1019.10
2022-12-19T08:17:28.560Z,1019.14
2022-12-19T08:18:28.508Z,1019.18
2022-12-19T08:19:28.503Z,1019.11
2022-12-19T08:20:28.497Z,1019.13
2022-12-19T08:21:28.477Z,1019.04
2022-12-19T08:22:28.573Z,1019.04
2022-12-19T08:23:28.443Z,1019.04
2022-12-19T08:24:28.434Z,1019.01
2022-12-19T08:25:28.449Z,1018.97
2022-12-19T08:26:32.726Z,1018.98
2022-12-19T08:27:28.402Z,1018.95
2022-12-19T08:28:28.388Z,1018.87
2022-12-19T08:29:28.387Z,1018.98
2022-12-19T08:30:28.469Z,1019.04
2022-12-19T08:31:28.397Z,1018.97
2022-12-19T08:32:28.360Z,1019.05
2022-12-19T08:33:28.344Z,1019.04
2022-12-19T08:34:28.333Z,1019.07
2022-12-19T08:35:28.321Z,1018.99
2022-12-19T08:36:28.320Z,1019.11
2022-12-19T08:37:28.333Z,1019.13
2022-12-19T08:38:28.301Z,1019.14
2022-12-19T08:39:28.293Z,1019.16
2022-12-19T08:40:28.269Z,1019.16
2022-12-19T08:41:28.258Z,1019.13
2022-12-19T08:42:28.267Z,1019.09
2022-12-19T08:43:28.260Z,1019.12
2022-12-19T08:44:28.226Z,1019.09
2022-12-19T08:45:28.226Z,1019.02
2022-12-19T08:46:28.359Z,1018.97
2022-12-19T08:47:28.198Z,1018.96
2022-12-19T08:48:28.185Z,1018.97
2022-12-19T08:49:28.174Z,1018.87
2022-12-19T08:50:28.158Z,1018.88
2022-12-19T08:51:28.167Z,1018.80
2022-12-19T08:52:28.145Z,1018.81
2022-12-19T08:53:28.139Z,1018.71
2022-12-19T08:54:28.229Z,1018.76
2022-12-19T08:55:28.109Z,1018.82
2022-12-19T08:56:28.120Z,1018.74
2022-12-19T08:57:28.111Z,1018.67
2022-12-19T08:58:28.120Z,1018.62
2022-12-19T08:59:31.267Z,1018.58
2022-12-19T09:00:28.084Z,1018.58
2022-12-19T09:01:28.162Z,1018.56
2022-12-19T09:02:28.324Z,1018.62
2022-12-19T09:03:32.136Z,1018.54
2022-12-19T09:05:59.848Z,1018.51
2022-12-19T09:06:05.343Z,1018.49
2022-12-19T09:06:29.278Z,1018.53
2022-12-19T09:07:28.024Z,1018.52
2022-12-19T09:08:27.996Z,1018.60
2022-12-19T09:09:27.991Z,1018.53
2022-12-19T09:10:28.080Z,1018.55
2022-12-19T09:11:27.974Z,1018.54
2022-12-19T09:12:27.958Z,1018.45
2022-12-19T09:13:27.938Z,1018.47
2022-12-19T09:14:27.980Z,1018.45
2022-12-19T09:15:27.952Z,1018.42
2022-12-19T09:16:28.057Z,1018.45
2022-12-19T09:17:27.930Z,1018.37
2022-12-19T09:18:27.895Z,1018.28
2022-12-19T09:19:27.880Z,1018.33
2022-12-19T09:20:27.935Z,1018.31
2022-12-19T09:21:27.905Z,1018.38
2022-12-19T09:22:29.269Z,1018.35
2022-12-19T09:23:27.813Z,1018.34
2022-12-19T09:24:27.801Z,1018.27
2022-12-19T09:25:27.801Z,1018.29
2022-12-19T09:26:27.797Z,1018.24
2022-12-19T09:27:28.792Z,1018.21
2022-12-19T09:28:28.301Z,1018.25
2022-12-19T09:29:30.905Z,1018.19
2022-12-19T09:30:28.780Z,1018.20
2022-12-19T09:31:27.873Z,1018.18
2022-12-19T09:32:27.807Z,1018.19
2022-12-19T09:33:27.807Z,1018.12
2022-12-19T09:34:37.724Z,1018.11
2022-12-19T09:35:30.624Z,1018.10
2022-12-19T09:36:27.689Z,1018.10
2022-12-19T09:37:27.692Z,1018.10
2022-12-19T09:38:27.675Z,1018.01
2022-12-19T09:39:27.722Z,1017.99
2022-12-19T09:40:27.651Z,1018.00
2022-12-19T09:41:27.646Z,1018.00
2022-12-19T09:42:27.734Z,1018.02
2022-12-19T09:43:27.707Z,1018.03
2022-12-19T09:44:27.635Z,1017.97
2022-12-19T09:45:31.926Z,1018.02
2022-12-19T09:46:28.674Z,1017.97
2022-12-19T09:47:27.619Z,1017.98
2022-12-19T09:48:27.586Z,1017.93
2022-12-19T09:49:28.623Z,1017.95
2022-12-19T09:50:28.191Z,1017.91
2022-12-19T09:51:27.602Z,1017.90
2022-12-19T09:52:31.644Z,1017.83
2022-12-19T09:53:28.590Z,1017.88
2022-12-19T09:54:27.531Z,1017.80
2022-12-19T09:55:27.504Z,1017.84
2022-12-19T09:56:27.503Z,1017.82
2022-12-19T09:57:27.460Z,1017.78
2022-12-19T09:58:27.582Z,1017.77
2022-12-19T09:59:31.806Z,1017.88
2022-12-19T10:00:28.444Z,1017.79
2022-12-19T10:01:27.700Z,1017.74
2022-12-19T10:02:27.741Z,1017.78
2022-12-19T10:03:27.520Z,1017.64
2022-12-19T10:04:27.411Z,1017.60
2022-12-19T10:06:01.824Z,1017.65
2022-12-19T10:07:18.378Z,1017.57
2022-12-19T10:07:51.369Z,1017.59
2022-12-19T10:08:28.375Z,1017.53
2022-12-19T10:11:37.718Z,1017.53
2022-12-19T10:12:35.913Z,1017.50
2022-12-19T10:12:46.214Z,1017.42
2022-12-19T10:12:47.994Z,1017.46
2022-12-19T10:13:28.301Z,1017.47
2022-12-19T10:14:27.464Z,1017.54
2022-12-19T10:15:27.288Z,1017.49
2022-12-19T10:16:27.332Z,1017.51
2022-12-19T10:17:27.255Z,1017.50
2022-12-19T10:18:27.272Z,1017.48
2022-12-19T10:19:27.268Z,1017.44
2022-12-19T10:20:27.282Z,1017.53
2022-12-19T10:21:50.820Z,1017.38
2022-12-19T10:22:28.212Z,1017.37
2022-12-19T10:23:27.213Z,1017.38
2022-12-19T10:24:33.161Z,1017.36
2022-12-19T10:25:28.186Z,1017.33
2022-12-19T10:26:30.066Z,1017.35
2022-12-19T10:27:27.142Z,1017.37
2022-12-19T10:28:27.177Z,1017.38
2022-12-19T10:29:27.152Z,1017.34
2022-12-19T10:30:27.224Z,1017.48
2022-12-19T10:31:27.202Z,1017.18
2022-12-19T10:32:27.098Z,1017.24
2022-12-19T10:33:27.088Z,1017.22
2022-12-19T10:34:27.082Z,1017.13
2022-12-19T10:35:27.071Z,1017.16
2022-12-19T10:36:55.995Z,1017.11
2022-12-19T10:37:37.665Z,1017.17
2022-12-19T10:38:28.033Z,1017.12
2022-12-19T10:39:27.025Z,1017.16
2022-12-19T10:40:27.907Z,1017.12
2022-12-19T10:41:27.029Z,1017.11
2022-12-19T10:42:26.992Z,1017.13
2022-12-19T10:43:33.653Z,1017.12
2022-12-19T10:44:27.002Z,1017.05
2022-12-19T10:45:27.027Z,1016.99
2022-12-19T10:46:27.131Z,1016.90
2022-12-19T10:47:26.949Z,1017.00
2022-12-19T10:48:30.328Z,1016.95
2022-12-19T10:49:26.954Z,1016.86
2022-12-19T10:50:26.937Z,1016.86
2022-12-19T10:51:26.916Z,1017.00
2022-12-19T10:52:26.875Z,1016.87
2022-12-19T10:53:26.870Z,1016.88
2022-12-19T10:54:33.426Z,1016.81
2022-12-19T10:55:27.910Z,1016.79
2022-12-19T10:56:33.156Z,1016.76
2022-12-19T10:57:27.832Z,1016.78
2022-12-19T10:58:26.857Z,1016.77
2022-12-19T10:59:26.832Z,1016.77
2022-12-19T11:00:26.834Z,1016.74
2022-12-19T11:01:26.958Z,1016.69
2022-12-19T11:02:27.016Z,1016.65
2022-12-19T11:03:26.952Z,1016.66
2022-12-19T11:04:26.979Z,1016.65
2022-12-19T11:05:26.885Z,1016.65
2022-12-19T11:06:26.751Z,1016.62
2022-12-19T11:07:26.769Z,1016.60
2022-12-19T11:08:26.763Z,1016.59
2022-12-19T11:09:26.710Z,1016.57
2022-12-19T11:11:00.485Z,1016.55
2022-12-19T11:15:28.495Z,1016.59
2022-12-19T11:16:30.265Z,1016.54
2022-12-19T11:17:39.810Z,1016.48
2022-12-19T11:19:29.680Z,1016.40
2022-12-19T11:20:48.571Z,1016.51
2022-12-19T11:22:39.112Z,1016.39
2022-12-19T11:26:32.541Z,1016.44
2022-12-19T11:26:33.322Z,1016.37
2022-12-19T11:29:25.026Z,1016.29
2022-12-19T11:29:31.324Z,1016.33
2022-12-19T11:29:32.463Z,1016.30
2022-12-19T11:29:36.866Z,1016.40
2022-12-19T11:29:37.686Z,1016.41
2022-12-19T11:29:39.637Z,1016.33
2022-12-19T11:29:45.792Z,1016.48
2022-12-19T11:29:45.795Z,1016.34
2022-12-19T11:30:45.506Z,1016.28
2022-12-19T11:30:46.431Z,1016.21
2022-12-19T11:32:31.533Z,1016.31
2022-12-19T11:32:45.618Z,1016.27
2022-12-19T11:33:27.481Z,1016.22
2022-12-19T11:34:26.556Z,1016.24
2022-12-19T11:35:36.693Z,1016.27
2022-12-19T11:36:27.439Z,1016.23
2022-12-19T11:37:26.420Z,1016.24
2022-12-19T11:38:26.421Z,1016.20
2022-12-19T11:39:26.384Z,1016.20
2022-12-19T11:40:26.375Z,1016.18
2022-12-19T11:41:26.387Z,1016.14
2022-12-19T11:42:26.367Z,1016.16
2022-12-19T11:43:44.034Z,1016.15
2022-12-19T11:44:27.362Z,1016.16
2022-12-19T11:45:26.337Z,1016.12
2022-12-19T11:46:26.327Z,1016.30
2022-12-19T11:47:26.312Z,1016.19
2022-12-19T11:48:26.304Z,1016.16
2022-12-19T11:49:26.320Z,1016.07
2022-12-19T11:50:26.430Z,1016.10
2022-12-19T11:51:26.292Z,1016.14
2022-12-19T11:53:27.250Z,1016.01
2022-12-19T11:54:26.227Z,1015.99
2022-12-19T11:55:26.232Z,1016.04
2022-12-19T11:56:26.215Z,1015.92
2022-12-19T11:57:26.210Z,1015.95
2022-12-19T11:58:26.198Z,1016.02
2022-12-19T11:59:26.195Z,1016.01
2022-12-19T12:00:26.169Z,1015.96
2022-12-19T12:01:26.214Z,1015.94
2022-12-19T12:02:26.160Z,1015.90
2022-12-19T12:03:26.165Z,1015.95
2022-12-19T12:04:26.188Z,1015.90
2022-12-19T12:05:26.115Z,1015.90
2022-12-19T12:06:31.270Z,1015.93
2022-12-19T12:08:34.568Z,1016.01
2022-12-19T12:09:43.603Z,1015.93